Time;durP1;ratioP1;P1;durP2;ratioP2;P2;SDS_P1;SDS_P2;PMS_P1;PMS_P2;Temp;Humidity;BMP_temperature;BMP_pressure;BME280_temperature;BME280_humidity;BME280_pressure;Samples;Min_cycle;Max_cycle;Signal;HPM_P1;HPM_P2
2024/03/12 00:00:16;;;;;;;46.30;31.90;;;;;;;8.29;87.87;97946.23;226834;1267;22524;-82
2024/03/12 00:05:19;;;;;;;49.30;32.70;;;;;;;8.27;87.83;97949.09;226808;1270;22542;-81
2024/03/12 00:10:22;;;;;;;46.80;31.60;;;;;;;8.27;87.59;97951.76;226725;1273;22530;-83
2024/03/12 00:15:25;;;;;;;45.50;30.60;;;;;;;8.27;87.93;97949.13;226646;1273;22539;-82
2024/03/12 00:20:33;;;;;;;50.60;34.10;;;;;;;8.25;88.07;97949.39;226991;1270;22541;-83
2024/03/12 00:25:37;;;;;;;52.40;34.20;;;;;;;8.22;88.08;97948.84;226911;1270;22569;-83
2024/03/12 00:30:40;;;;;;;49.40;32.70;;;;;;;8.21;88.15;97951.14;226948;1269;22629;-82
2024/03/12 00:35:46;;;;;;;48.90;32.50;;;;;;;8.20;88.10;97947.33;226726;1273;22566;-83
2024/03/12 00:40:50;;;;;;;50.00;32.30;;;;;;;8.17;88.12;97949.45;226716;1273;22545;-82
2024/03/12 00:45:53;;;;;;;52.50;34.80;;;;;;;8.17;88.62;97943.17;226853;1269;22539;-84
2024/03/12 00:50:55;;;;;;;57.00;35.70;;;;;;;8.16;88.16;97940.73;226631;1269;295080;-82
2024/03/12 00:55:58;;;;;;;56.40;35.80;;;;;;;8.13;88.23;97940.59;226789;1273;22559;-82
2024/03/12 01:01:00;;;;;;;58.10;36.60;;;;;;;8.13;88.43;97939.45;226944;1270;22609;-84
2024/03/12 01:06:03;;;;;;;55.00;35.10;;;;;;;8.13;88.27;97936.14;226913;1272;22558;-84
2024/03/12 01:11:06;;;;;;;50.50;33.10;;;;;;;8.13;88.45;97932.81;226957;1273;22600;-83
2024/03/12 01:16:09;;;;;;;58.70;38.40;;;;;;;8.10;88.20;97925.06;226924;1271;22544;-82
2024/03/12 01:21:13;;;;;;;65.80;40.90;;;;;;;8.08;88.41;97929.94;226998;1271;25867;-84
2024/03/12 01:26:15;;;;;;;63.20;39.80;;;;;;;8.08;88.32;97929.08;226964;1273;22534;-82
2024/03/12 01:31:17;;;;;;;62.60;39.30;;;;;;;8.02;88.44;97927.83;226838;1270;22558;-83
2024/03/12 01:36:20;;;;;;;59.40;39.30;;;;;;;8.00;88.62;97925.33;227006;1273;25430;-82
2024/03/12 01:41:23;;;;;;;74.60;43.70;;;;;;;8.01;88.47;97926.05;227029;1273;22537;-84
2024/03/12 01:46:29;;;;;;;70.50;42.60;;;;;;;7.99;88.16;97924.23;226999;1273;23382;-84
2024/03/12 01:51:31;;;;;;;70.70;43.20;;;;;;;7.96;88.50;97919.52;226918;1270;22533;-82
2024/03/12 01:56:35;;;;;;;65.60;40.30;;;;;;;7.97;88.84;97922.91;226959;1270;22537;-84
2024/03/12 02:01:39;;;;;;;63.10;39.10;;;;;;;7.98;88.74;97923.52;227018;1270;22533;-84
2024/03/12 02:06:44;;;;;;;61.00;37.80;;;;;;;7.96;88.24;97921.58;226982;1267;22582;-83
2024/03/12 02:11:47;;;;;;;64.90;37.80;;;;;;;7.91;88.27;97927.11;226975;1273;22538;-82
2024/03/12 02:16:50;;;;;;;64.40;37.40;;;;;;;7.88;88.31;97923.44;226973;1270;25288;-84
2024/03/12 02:21:53;;;;;;;70.50;41.40;;;;;;;7.86;88.08;97919.02;226900;1269;22539;-83
2024/03/12 02:26:55;;;;;;;70.70;41.40;;;;;;;7.81;88.26;97916.65;226924;1270;22553;-84
2024/03/12 02:31:57;;;;;;;60.30;36.00;;;;;;;7.79;88.42;97920.63;226907;1273;22551;-82
2024/03/12 02:37:01;;;;;;;64.80;39.30;;;;;;;7.74;88.24;97916.90;226922;1268;22529;-83
2024/03/12 02:42:05;;;;;;;75.10;43.20;;;;;;;7.70;88.59;97924.14;226988;1270;22554;-83
2024/03/12 02:47:07;;;;;;;67.10;40.80;;;;;;;7.67;88.31;97920.39;226953;1270;22571;-83
2024/03/12 02:52:11;;;;;;;60.60;37.80;;;;;;;7.63;88.69;97916.10;227013;1273;22576;-82
2024/03/12 02:57:13;;;;;;;58.60;38.00;;;;;;;7.59;88.50;97915.91;226963;1262;22550;-83
2024/03/12 03:02:15;;;;;;;65.60;38.20;;;;;;;7.59;88.90;97915.25;226988;1269;22531;-84
2024/03/12 03:07:17;;;;;;;63.50;38.40;;;;;;;7.57;88.73;97912.17;227013;1270;22536;-83
2024/03/12 03:12:20;;;;;;;61.10;37.40;;;;;;;7.55;88.58;97913.34;226971;1273;22702;-82
2024/03/12 03:17:22;;;;;;;58.80;36.80;;;;;;;7.53;88.97;97917.36;226851;1273;22537;-84
2024/03/12 03:22:24;;;;;;;56.00;34.30;;;;;;;7.55;89.04;97915.73;226919;1269;22606;-83
2024/03/12 03:27:26;;;;;;;56.90;34.80;;;;;;;7.54;88.63;97918.64;226936;1266;22577;-83
2024/03/12 03:32:28;;;;;;;58.80;36.00;;;;;;;7.52;88.63;97922.33;226977;1272;22544;-83
2024/03/12 03:37:35;;;;;;;55.30;34.30;;;;;;;7.49;88.75;97923.64;226900;1268;24282;-82
2024/03/12 03:42:37;;;;;;;49.40;32.60;;;;;;;7.49;88.62;97929.53;226944;1271;22545;-83
2024/03/12 03:47:39;;;;;;;55.00;35.00;;;;;;;7.48;88.93;97933.45;227033;1267;22641;-83
2024/03/12 03:52:41;;;;;;;54.70;37.10;;;;;;;7.47;88.80;97936.83;226979;1273;22924;-83
2024/03/12 03:57:44;;;;;;;55.20;36.20;;;;;;;7.49;88.82;97937.14;226953;1273;22548;-83
2024/03/12 04:02:46;;;;;;;51.70;35.10;;;;;;;7.51;88.67;97942.30;226946;1270;22544;-82
2024/03/12 04:07:49;;;;;;;53.30;36.20;;;;;;;7.52;88.91;97943.89;226984;1270;22544;-82
2024/03/12 04:12:55;;;;;;;50.40;34.80;;;;;;;7.51;88.66;97938.70;226986;1269;22472;-84
2024/03/12 04:17:58;;;;;;;52.10;34.80;;;;;;;7.50;88.89;97937.80;226851;1273;22555;-82
2024/03/12 04:23:01;;;;;;;50.20;32.60;;;;;;;7.48;88.67;97940.80;226706;1273;22547;-81
2024/03/12 04:28:03;;;;;;;58.60;36.70;;;;;;;7.48;88.68;97943.15;226924;1271;22534;-82
2024/03/12 04:33:06;;;;;;;54.80;35.90;;;;;;;7.49;89.25;97940.86;226836;1267;22537;-83
2024/03/12 04:38:08;;;;;;;54.10;36.10;;;;;;;7.53;89.01;97947.73;226715;1273;22538;-82
2024/03/12 04:43:12;;;;;;;59.10;39.00;;;;;;;7.52;88.79;97950.80;226932;1268;22558;-82
2024/03/12 04:48:15;;;;;;;48.40;32.40;;;;;;;7.53;89.00;97954.36;226861;1268;22530;-83
2024/03/12 04:53:17;;;;;;;53.00;34.10;;;;;;;7.55;88.97;97955.12;226902;1266;23383;-84
2024/03/12 04:58:26;;;;;;;52.60;33.50;;;;;;;7.56;88.98;97959.90;226855;1273;22526;-83
2024/03/12 05:03:29;;;;;;;52.00;32.70;;;;;;;7.56;89.04;97964.27;226812;1271;24266;-82
2024/03/12 05:08:31;;;;;;;46.20;30.00;;;;;;;7.58;88.61;97962.84;226811;1270;22585;-82
2024/03/12 05:13:34;;;;;;;45.60;29.10;;;;;;;7.58;88.98;97966.33;226789;1271;25437;-82
2024/03/12 05:18:36;;;;;;;46.00;29.40;;;;;;;7.59;88.90;97971.70;226753;1272;22550;-82
2024/03/12 05:23:39;;;;;;;44.10;28.10;;;;;;;7.60;89.20;97975.36;226841;1270;24276;-83
2024/03/12 05:28:41;;;;;;;44.10;27.20;;;;;;;7.62;89.11;97975.02;226887;1273;22548;-82
2024/03/12 05:33:44;;;;;;;44.40;27.60;;;;;;;7.64;89.09;97978.36;226772;1271;25258;-83
2024/03/12 05:38:55;;;;;;;42.00;27.30;;;;;;;7.65;89.08;97981.73;226766;1270;22553;-84
2024/03/12 05:49:19;;;;;;;42.40;28.50;;;;;;;7.63;89.04;97989.23;226815;1273;22556;-84
2024/03/12 05:54:21;;;;;;;43.60;28.80;;;;;;;7.66;88.91;97995.89;226816;1269;22590;-84
2024/03/12 05:59:25;;;;;;;53.40;33.00;;;;;;;7.72;89.25;97995.98;226756;1268;22545;-85
2024/03/12 06:04:32;;;;;;;54.30;36.60;;;;;;;7.77;88.88;97998.33;226785;1272;22542;-84
2024/03/12 06:09:34;;;;;;;59.20;37.00;;;;;;;7.84;89.11;97999.61;226822;1270;23125;-83
2024/03/12 06:14:36;;;;;;;60.10;39.60;;;;;;;7.87;88.96;98003.75;226874;1268;22532;-83
2024/03/12 06:19:38;;;;;;;52.90;36.30;;;;;;;7.90;89.02;98006.40;226847;1271;22528;-83
2024/03/12 06:24:40;;;;;;;53.40;34.00;;;;;;;7.94;89.12;98013.27;226800;1269;24424;-83
2024/03/12 06:29:49;;;;;;;52.90;33.80;;;;;;;8.00;89.10;98015.64;226876;1273;22625;-84
2024/03/12 06:34:51;;;;;;;48.00;31.80;;;;;;;8.07;88.72;98021.11;226833;1271;22533;-83
2024/03/12 06:39:54;;;;;;;52.00;34.80;;;;;;;8.09;88.71;98029.84;226775;1273;22570;-83
2024/03/12 06:44:57;;;;;;;52.80;34.90;;;;;;;8.16;88.53;98038.92;226667;1272;22998;-83
2024/03/12 06:49:59;;;;;;;54.60;34.90;;;;;;;8.20;88.44;98039.42;226715;1265;25922;-81
2024/03/12 06:55:04;;;;;;;53.00;34.00;;;;;;;8.24;88.31;98045.65;226534;1259;23105;-81
2024/03/12 07:00:11;;;;;;;55.60;35.90;;;;;;;8.34;88.50;98049.64;226611;1253;25255;-83
2024/03/12 07:05:15;;;;;;;52.80;33.90;;;;;;;8.38;88.03;98055.79;226423;1262;23058;-79
2024/03/12 07:10:18;;;;;;;52.60;32.90;;;;;;;8.42;88.26;98058.27;226471;1270;22534;-77
2024/03/12 07:15:21;;;;;;;53.90;33.70;;;;;;;8.45;87.98;98062.61;226340;1254;22538;-78
2024/03/12 07:20:22;;;;;;;53.50;33.00;;;;;;;8.49;88.13;98059.98;226238;1262;25272;-79
2024/03/12 07:25:30;;;;;;;67.60;45.50;;;;;;;8.53;87.69;98060.63;226232;1266;22537;-80
2024/03/12 07:30:34;;;;;;;49.10;30.30;;;;;;;8.53;87.77;98061.48;226215;1259;24274;-79
2024/03/12 07:35:37;;;;;;;50.20;30.50;;;;;;;8.56;87.79;98064.45;226758;1265;22553;-78
2024/03/12 07:40:43;;;;;;;51.20;30.80;;;;;;;8.60;87.87;98071.40;226179;1252;22634;-79
2024/03/12 07:45:48;;;;;;;55.80;34.00;;;;;;;8.67;87.49;98072.14;226252;1273;26156;-80
2024/03/12 07:50:50;;;;;;;47.40;30.40;;;;;;;8.76;87.66;98069.77;226361;1266;22530;-80
2024/03/12 07:55:56;;;;;;;47.80;29.50;;;;;;;8.86;87.57;98074.32;226127;1257;22544;-81
2024/03/12 08:00:59;;;;;;;45.40;29.30;;;;;;;8.94;87.35;98077.11;226289;1265;22520;-81
2024/03/12 08:06:01;;;;;;;42.30;28.00;;;;;;;8.97;87.08;98079.40;226292;1266;22530;-79
2024/03/12 08:11:04;;;;;;;50.60;30.20;;;;;;;9.01;86.98;98078.70;226473;1265;22573;-81
2024/03/12 08:16:07;;;;;;;58.50;34.00;;;;;;;9.03;86.89;98087.27;226516;1257;22579;-82
2024/03/12 08:21:09;;;;;;;59.60;33.20;;;;;;;9.06;86.94;98090.11;226656;1270;22532;-80
2024/03/12 08:26:12;;;;;;;61.80;34.60;;;;;;;9.09;86.78;98098.23;226550;1265;22528;-81
2024/03/12 08:31:15;;;;;;;59.80;33.20;;;;;;;9.12;86.96;98101.36;226400;1265;22545;-79
2024/03/12 08:36:33;;;;;;;57.10;32.00;;;;;;;9.13;86.63;98104.58;226456;1256;22566;-80
2024/03/12 08:41:35;;;;;;;63.60;36.00;;;;;;;9.09;86.43;98106.59;226277;1259;22533;-81
2024/03/12 08:46:37;;;;;;;65.90;35.90;;;;;;;9.12;86.87;98112.89;226235;1265;23089;-81
2024/03/12 08:51:39;;;;;;;65.90;36.50;;;;;;;9.15;86.63;98123.41;226331;1250;22556;-80
2024/03/12 08:56:42;;;;;;;68.90;38.50;;;;;;;9.13;86.35;98123.59;226345;1266;22539;-79
2024/03/12 09:01:45;;;;;;;80.30;40.90;;;;;;;9.11;86.28;98125.41;226330;1266;22559;-79
2024/03/12 09:06:47;;;;;;;70.80;37.20;;;;;;;9.12;86.45;98133.29;226384;1266;22542;-79
2024/03/12 09:11:50;;;;;;;72.30;37.90;;;;;;;9.12;86.56;98131.25;226426;1273;22524;-78
2024/03/12 09:16:52;;;;;;;76.10;36.20;;;;;;;9.12;86.47;98132.91;226503;1271;22806;-79
2024/03/12 09:21:54;;;;;;;70.20;34.30;;;;;;;9.13;86.80;98134.79;226224;1256;22989;-79
2024/03/12 09:26:58;;;;;;;66.30;33.50;;;;;;;9.08;86.75;98138.27;226190;1250;22537;-81
2024/03/12 09:32:00;;;;;;;66.60;33.20;;;;;;;9.02;86.60;98138.17;226423;1266;23459;-79
2024/03/12 09:37:03;;;;;;;70.80;35.20;;;;;;;9.00;87.00;98142.09;226566;1263;22532;-80
2024/03/12 09:42:07;;;;;;;67.30;34.70;;;;;;;8.99;86.68;98145.60;226271;1253;23052;-81
2024/03/12 09:47:10;;;;;;;64.70;33.70;;;;;;;9.01;86.83;98146.39;226578;1266;22630;-79
2024/03/12 09:52:13;;;;;;;69.90;34.20;;;;;;;9.03;86.77;98155.09;226358;1266;22633;-81
2024/03/12 09:57:16;;;;;;;63.50;31.90;;;;;;;9.04;86.95;98153.52;226578;1271;22541;-80
2024/03/12 10:02:20;;;;;;;59.00;31.10;;;;;;;9.06;86.97;98161.13;226551;1253;22534;-77
2024/03/12 10:07:24;;;;;;;66.20;34.70;;;;;;;9.04;86.60;98161.25;226521;1265;22579;-81
2024/03/12 10:12:27;;;;;;;63.40;32.30;;;;;;;9.05;86.64;98166.98;226514;1253;25342;-82
2024/03/12 10:17:31;;;;;;;65.60;33.70;;;;;;;9.05;86.61;98165.84;226151;1271;24241;-81
2024/03/12 10:22:33;;;;;;;61.80;34.00;;;;;;;9.11;86.84;98168.17;226418;1255;22798;-78
2024/03/12 10:27:56;;;;;;;63.00;32.00;;;;;;;9.19;86.99;98173.65;226431;1266;22969;-83
2024/03/12 10:33:20;;;;;;;60.70;33.00;;;;;;;9.19;86.60;98170.91;226204;1256;22572;-80
2024/03/12 10:38:27;;;;;;;60.90;33.50;;;;;;;9.17;86.39;98180.08;226808;1270;22576;-82
2024/03/12 10:43:31;;;;;;;73.50;39.60;;;;;;;9.11;86.19;98176.20;226291;1273;24275;-80
2024/03/12 10:48:36;;;;;;;80.70;41.70;;;;;;;9.03;86.07;98176.41;226402;1271;22527;-82
2024/03/12 10:53:40;;;;;;;71.50;38.20;;;;;;;8.99;86.21;98178.93;226412;1265;22602;-81
2024/03/12 10:58:46;;;;;;;71.40;38.00;;;;;;;9.00;86.48;98181.64;226436;1271;22642;-81
2024/03/12 11:03:56;;;;;;;66.10;35.00;;;;;;;9.02;86.42;98181.71;226488;1273;22530;-81
2024/03/12 11:08:59;;;;;;;70.90;37.00;;;;;;;9.01;86.54;98183.12;226525;1262;22576;-81
2024/03/12 11:14:02;;;;;;;68.30;38.40;;;;;;;9.02;86.54;98184.23;226485;1250;24238;-81
2024/03/12 11:19:25;;;;;;;87.30;44.60;;;;;;;9.01;86.28;98187.94;226602;1256;22822;-83
2024/03/12 11:24:29;;;;;;;64.10;36.60;;;;;;;8.99;86.55;98188.70;226571;1270;24248;-81
2024/03/12 11:30:03;;;;;;;64.40;36.60;;;;;;;9.00;86.41;98191.10;226425;1269;22570;-82
2024/03/12 11:35:28;;;;;;;63.40;36.90;;;;;;;9.00;86.60;98197.98;226493;1254;26204;-83
2024/03/12 11:40:38;;;;;;;66.10;37.50;;;;;;;8.97;86.47;98197.14;226552;1254;22535;-81
2024/03/12 11:45:46;;;;;;;58.90;35.70;;;;;;;8.89;86.41;98195.60;226538;1250;25335;-81
2024/03/12 11:50:59;;;;;;;58.80;33.60;;;;;;;8.80;86.54;98194.84;226505;1254;22597;-85
2024/03/12 11:56:10;;;;;;;47.30;28.50;;;;;;;8.73;86.49;98195.85;226507;1270;25374;-80
2024/03/12 12:01:31;;;;;;;41.90;25.90;;;;;;;8.69;86.46;98203.21;226079;1270;22545;-80
2024/03/12 12:06:35;;;;;;;38.60;24.40;;;;;;;8.69;86.96;98202.29;226173;1274;22558;-81
2024/03/12 12:11:38;;;;;;;38.10;24.10;;;;;;;8.72;87.03;98212.84;226037;1266;22545;-81
2024/03/12 12:16:41;;;;;;;33.60;21.00;;;;;;;8.72;86.89;98210.09;226201;1258;22550;-80
2024/03/12 12:21:45;;;;;;;35.70;21.80;;;;;;;8.64;87.00;98209.49;226099;1270;22524;-80
2024/03/12 12:26:47;;;;;;;35.90;22.40;;;;;;;8.54;87.07;98209.45;226438;1270;22585;-81
2024/03/12 12:31:52;;;;;;;32.40;21.10;;;;;;;8.46;87.15;98213.39;226639;1266;22511;-81
2024/03/12 12:36:56;;;;;;;30.40;19.70;;;;;;;8.39;87.23;98216.40;226451;1267;22556;-81
2024/03/12 12:41:59;;;;;;;29.20;19.40;;;;;;;8.35;87.34;98220.00;226508;1250;22534;-80
2024/03/12 12:47:03;;;;;;;31.90;19.90;;;;;;;8.33;87.99;98223.61;226490;1269;22584;-80
2024/03/12 12:52:05;;;;;;;30.60;19.60;;;;;;;8.30;87.86;98220.00;226336;1272;190207;-82
2024/03/12 12:57:10;;;;;;;28.80;19.40;;;;;;;8.24;87.92;98218.04;226363;1273;22548;-83
2024/03/12 13:02:18;;;;;;;27.60;18.10;;;;;;;8.18;87.86;98221.25;226416;1270;23032;-82
2024/03/12 13:07:39;;;;;;;24.60;16.20;;;;;;;8.14;87.98;98224.67;226367;1251;22535;-82
2024/03/12 13:12:50;;;;;;;25.60;17.90;;;;;;;8.13;88.38;98229.75;226419;1257;22569;-82
2024/03/12 13:17:53;;;;;;;27.60;17.60;;;;;;;8.14;88.29;98235.36;226543;1265;22634;-81
2024/03/12 13:22:58;;;;;;;24.50;17.30;;;;;;;8.13;88.19;98237.21;226389;1250;24380;-82
2024/03/12 13:28:00;;;;;;;27.90;18.70;;;;;;;8.11;88.48;98246.93;226460;1270;22542;-80
2024/03/12 13:33:02;;;;;;;30.30;18.60;;;;;;;8.08;88.44;98246.36;226334;1250;22644;-80
2024/03/12 13:38:05;;;;;;;26.40;17.70;;;;;;;8.01;88.72;98248.92;226120;1271;22522;-81
2024/03/12 13:43:10;;;;;;;28.00;17.60;;;;;;;7.95;88.69;98249.09;226303;1251;22552;-80
2024/03/12 13:48:14;;;;;;;29.30;17.60;;;;;;;7.92;89.02;98252.77;226190;1250;22583;-80
2024/03/12 13:53:16;;;;;;;22.90;16.30;;;;;;;7.93;89.15;98254.12;226138;1258;24251;-80
2024/03/12 13:58:19;;;;;;;23.50;15.70;;;;;;;7.92;90.19;98253.57;226022;1264;22550;-80
2024/03/12 14:03:22;;;;;;;28.20;18.60;;;;;;;7.93;89.96;98252.73;226236;1267;22534;-81
2024/03/12 14:08:24;;;;;;;27.40;17.70;;;;;;;7.92;89.97;98255.99;226418;1270;22519;-83
2024/03/12 14:13:27;;;;;;;30.00;18.80;;;;;;;7.91;89.82;98255.25;226196;1269;23274;-82
2024/03/12 14:18:31;;;;;;;26.90;17.90;;;;;;;7.89;89.90;98257.05;226269;1273;22527;-84
2024/03/12 14:23:33;;;;;;;25.40;17.40;;;;;;;7.86;89.81;98259.73;226238;1267;23272;-82
2024/03/12 14:28:35;;;;;;;26.20;18.80;;;;;;;7.83;89.78;98262.17;226350;1267;22539;-81
2024/03/12 14:33:37;;;;;;;29.90;18.60;;;;;;;7.81;89.82;98266.95;226445;1269;22588;-81
2024/03/12 14:38:41;;;;;;;25.00;16.20;;;;;;;7.79;89.74;98267.90;226531;1269;22541;-79
2024/03/12 14:43:44;;;;;;;21.00;14.90;;;;;;;7.77;89.74;98267.63;226453;1273;22564;-81
2024/03/12 14:48:46;;;;;;;22.00;14.80;;;;;;;7.71;90.05;98274.77;226565;1273;23051;-82
2024/03/12 14:53:48;;;;;;;23.00;15.20;;;;;;;7.66;90.15;98278.08;226568;1269;22540;-81
2024/03/12 14:58:50;;;;;;;24.10;15.90;;;;;;;7.62;90.16;98284.78;226385;1270;22624;-82
2024/03/12 15:03:52;;;;;;;22.50;15.90;;;;;;;7.60;90.27;98287.53;226230;1272;22570;-82
2024/03/12 15:08:55;;;;;;;18.70;14.10;;;;;;;7.60;90.24;98294.56;226166;1273;22528;-81
2024/03/12 15:13:57;;;;;;;19.20;14.50;;;;;;;7.58;90.53;98302.59;226402;1272;22583;-81
2024/03/12 15:18:59;;;;;;;18.20;13.60;;;;;;;7.55;90.41;98304.27;226590;1273;22591;-82
2024/03/12 15:24:01;;;;;;;17.90;13.90;;;;;;;7.52;90.83;98303.37;226621;1273;22545;-81
2024/03/12 15:29:03;;;;;;;19.20;14.50;;;;;;;7.52;90.69;98303.89;226678;1273;22562;-82
2024/03/12 15:34:08;;;;;;;19.00;14.10;;;;;;;7.48;90.58;98301.92;226628;1272;25288;-82
2024/03/12 15:39:10;;;;;;;17.80;13.50;;;;;;;7.44;91.15;98302.15;226855;1270;22777;-82
2024/03/12 15:44:16;;;;;;;18.80;14.10;;;;;;;7.42;91.14;98306.37;226745;1273;25291;-83
2024/03/12 15:49:20;;;;;;;18.80;14.80;;;;;;;7.41;91.33;98312.36;226863;1271;22596;-82
2024/03/12 15:54:25;;;;;;;19.50;15.10;;;;;;;7.42;91.25;98308.75;226871;1273;22550;-83
2024/03/12 15:59:26;;;;;;;17.40;14.70;;;;;;;7.42;91.13;98313.23;226824;1273;24271;-83
2024/03/12 16:04:29;;;;;;;17.70;14.90;;;;;;;7.42;91.20;98314.16;226837;1273;22611;-82
2024/03/12 16:09:31;;;;;;;19.60;14.80;;;;;;;7.40;91.28;98322.81;226822;1273;22558;-83
2024/03/12 16:14:34;;;;;;;20.20;15.20;;;;;;;7.37;90.96;98327.34;226823;1273;23003;-82
2024/03/12 16:19:36;;;;;;;18.50;14.90;;;;;;;7.34;91.01;98330.84;226784;1269;23587;-82
2024/03/12 16:24:38;;;;;;;21.20;15.90;;;;;;;7.33;91.06;98335.73;226808;1273;22546;-82
2024/03/12 16:29:41;;;;;;;19.70;15.80;;;;;;;7.31;91.26;98339.50;226690;1273;22537;-81
2024/03/12 16:34:43;;;;;;;18.40;14.80;;;;;;;7.28;91.54;98346.58;226795;1273;24229;-82
2024/03/12 16:39:45;;;;;;;18.60;14.90;;;;;;;7.27;91.43;98354.66;226866;1273;22543;-81
2024/03/12 16:44:49;;;;;;;18.40;14.60;;;;;;;7.26;91.72;98357.60;226812;1273;22537;-81
2024/03/12 16:49:53;;;;;;;15.60;13.90;;;;;;;7.24;91.50;98360.04;226874;1273;22551;-81
2024/03/12 16:54:55;;;;;;;16.60;13.20;;;;;;;7.22;91.67;98364.39;226799;1271;22533;-80
2024/03/12 17:00:00;;;;;;;15.00;12.90;;;;;;;7.19;91.31;98366.04;226739;1270;25935;-81
2024/03/12 17:05:04;;;;;;;15.30;12.90;;;;;;;7.17;91.55;98365.86;226875;1273;22542;-81
2024/03/12 17:10:07;;;;;;;14.20;12.10;;;;;;;7.13;91.38;98371.70;226806;1273;22541;-81
2024/03/12 17:15:10;;;;;;;13.80;12.30;;;;;;;7.11;91.60;98376.17;226754;1268;22547;-82
2024/03/12 17:20:13;;;;;;;14.90;12.80;;;;;;;7.08;91.47;98379.27;226850;1270;22569;-82
2024/03/12 17:25:18;;;;;;;14.10;12.60;;;;;;;7.04;91.46;98387.02;226898;1270;22549;-82
2024/03/12 17:30:24;;;;;;;15.50;12.70;;;;;;;7.02;91.81;98389.74;226941;1267;22540;-82
2024/03/12 17:35:27;;;;;;;14.80;13.20;;;;;;;6.99;91.92;98388.39;226798;1270;22550;-81
2024/03/12 17:40:29;;;;;;;15.70;13.60;;;;;;;6.97;91.85;98392.09;226862;1267;25291;-81
2024/03/12 17:45:31;;;;;;;17.50;14.20;;;;;;;6.95;91.95;98394.79;226813;1270;22621;-82
2024/03/12 17:50:33;;;;;;;15.80;13.40;;;;;;;6.92;91.98;98401.98;226852;1270;22539;-81
2024/03/12 17:55:37;;;;;;;18.60;14.90;;;;;;;6.89;92.28;98401.22;226889;1267;22696;-81
2024/03/12 18:00:40;;;;;;;19.10;15.80;;;;;;;6.86;91.85;98414.10;226875;1270;22537;-82
2024/03/12 18:05:42;;;;;;;20.00;16.90;;;;;;;6.85;92.22;98413.59;226889;1270;22548;-81
2024/03/12 18:10:47;;;;;;;20.20;17.20;;;;;;;6.83;92.07;98420.46;226847;1273;22546;-81
2024/03/12 18:15:49;;;;;;;21.60;18.50;;;;;;;6.82;92.19;98425.10;226989;1272;22543;-80
2024/03/12 18:20:51;;;;;;;22.10;18.40;;;;;;;6.82;92.18;98424.61;226873;1273;22488;-81
2024/03/12 18:25:53;;;;;;;21.90;18.80;;;;;;;6.81;92.00;98426.30;226858;1260;22545;-81
2024/03/12 18:30:55;;;;;;;22.80;18.80;;;;;;;6.80;92.26;98424.92;226811;1267;22548;-82
2024/03/12 18:35:57;;;;;;;24.50;19.70;;;;;;;6.78;92.17;98432.27;226879;1273;24374;-82
2024/03/12 18:40:59;;;;;;;25.50;20.80;;;;;;;6.79;92.44;98434.21;226955;1273;22530;-81
2024/03/12 18:46:01;;;;;;;26.50;21.00;;;;;;;6.80;92.20;98434.64;226908;1270;23377;-82
2024/03/12 18:51:04;;;;;;;26.50;21.00;;;;;;;6.81;92.24;98435.66;226845;1267;22540;-81
2024/03/12 18:56:07;;;;;;;25.70;20.00;;;;;;;6.80;92.14;98442.67;226926;1270;22543;-81
2024/03/12 19:01:10;;;;;;;25.00;20.50;;;;;;;6.79;92.62;98447.60;226876;1272;22628;-81
2024/03/12 19:06:13;;;;;;;28.50;22.80;;;;;;;6.79;92.26;98447.24;227012;1273;22664;-81
2024/03/12 19:11:27;;;;;;;31.80;23.00;;;;;;;6.79;92.30;98449.27;226880;1270;24988;-81
2024/03/12 19:16:33;;;;;;;29.00;23.10;;;;;;;6.79;92.53;98452.42;226896;1273;22539;-81
2024/03/12 19:21:35;;;;;;;29.60;22.30;;;;;;;6.80;92.34;98457.23;226891;1271;22547;-81
2024/03/12 19:26:39;;;;;;;25.90;21.00;;;;;;;6.80;92.38;98459.74;226854;1273;22539;-81
2024/03/12 19:31:41;;;;;;;26.70;21.50;;;;;;;6.79;92.57;98459.26;226989;1268;22578;-81
2024/03/12 19:36:44;;;;;;;27.00;20.30;;;;;;;6.78;92.14;98462.41;227029;1267;22552;-81
2024/03/12 19:41:47;;;;;;;25.10;20.30;;;;;;;6.75;92.48;98462.85;226990;1271;22902;-81
2024/03/12 19:46:50;;;;;;;25.80;19.50;;;;;;;6.71;92.19;98465.32;226950;1270;25259;-81
2024/03/12 19:51:52;;;;;;;24.50;17.80;;;;;;;6.69;92.29;98466.27;226943;1273;22546;-80
2024/03/12 19:56:57;;;;;;;24.30;19.30;;;;;;;6.66;92.07;98468.02;226900;1271;22606;-81
2024/03/12 20:01:59;;;;;;;27.00;19.20;;;;;;;6.64;92.42;98470.94;226945;1260;22640;-80
2024/03/12 20:07:02;;;;;;;25.00;19.70;;;;;;;6.61;92.40;98473.90;226955;1267;22551;-81
2024/03/12 20:12:07;;;;;;;23.70;18.90;;;;;;;6.57;92.33;98476.77;226932;1273;23612;-80
2024/03/12 20:17:09;;;;;;;27.80;19.90;;;;;;;6.54;92.87;98474.44;226856;1270;22557;-80
2024/03/12 20:22:11;;;;;;;24.90;19.60;;;;;;;6.52;92.27;98478.21;226930;1270;23410;-81
2024/03/12 20:27:13;;;;;;;26.40;19.80;;;;;;;6.50;92.91;98481.42;226868;1271;22533;-80
2024/03/12 20:32:15;;;;;;;27.40;20.40;;;;;;;6.48;92.67;98483.04;226849;1270;22546;-81
2024/03/12 20:37:19;;;;;;;24.80;18.50;;;;;;;6.45;92.72;98482.16;226826;1273;22584;-80
2024/03/12 20:42:22;;;;;;;25.20;19.00;;;;;;;6.41;92.37;98486.98;226987;1272;22555;-80
2024/03/12 20:47:24;;;;;;;25.20;18.20;;;;;;;6.37;92.74;98495.84;226947;1271;22565;-81
2024/03/12 20:52:27;;;;;;;22.80;17.10;;;;;;;6.34;92.71;98497.71;226912;1269;23402;-80
2024/03/12 20:57:31;;;;;;;25.10;18.80;;;;;;;6.31;92.99;98500.34;226931;1273;22529;-82
2024/03/12 21:02:33;;;;;;;22.60;17.40;;;;;;;6.30;92.96;98498.34;226916;1273;22562;-81
2024/03/12 21:07:35;;;;;;;24.70;19.00;;;;;;;6.29;93.13;98496.86;226957;1273;22747;-81
2024/03/12 21:12:38;;;;;;;25.00;18.30;;;;;;;6.27;92.75;98499.81;226944;1270;23639;-81
2024/03/12 21:17:44;;;;;;;22.20;18.60;;;;;;;6.27;93.07;98504.41;226989;1270;22552;-81
2024/03/12 21:22:47;;;;;;;26.70;19.50;;;;;;;6.25;93.07;98504.98;226926;1270;22583;-81
2024/03/12 21:27:49;;;;;;;28.80;21.20;;;;;;;6.24;93.22;98505.65;226880;1273;22565;-81
2024/03/12 21:32:52;;;;;;;30.20;22.00;;;;;;;6.24;93.27;98504.60;226958;1268;22570;-83
2024/03/12 21:37:54;;;;;;;28.80;21.50;;;;;;;6.25;93.34;98510.05;226997;1271;22547;-80
2024/03/12 21:42:57;;;;;;;29.50;21.40;;;;;;;6.26;93.11;98508.14;226770;1273;22654;-80
2024/03/12 21:48:00;;;;;;;27.00;19.60;;;;;;;6.28;93.53;98510.89;226923;1273;24897;-82
2024/03/12 21:53:07;;;;;;;24.90;18.10;;;;;;;6.29;93.21;98511.52;227049;1268;22895;-80
2024/03/12 21:58:13;;;;;;;22.60;16.80;;;;;;;6.26;93.27;98516.53;226972;1270;22908;-80
2024/03/12 22:03:16;;;;;;;21.40;15.80;;;;;;;6.24;93.27;98517.36;226873;1270;23277;-81
2024/03/12 22:08:18;;;;;;;23.70;17.70;;;;;;;6.20;93.23;98520.89;226890;1268;23263;-80
2024/03/12 22:13:22;;;;;;;24.10;16.50;;;;;;;6.17;93.32;98524.56;226932;1268;22573;-80
2024/03/12 22:18:34;;;;;;;21.30;16.20;;;;;;;6.14;93.29;98526.46;226926;1268;25343;-81
2024/03/12 22:23:41;;;;;;;22.50;17.60;;;;;;;6.12;93.30;98528.03;226957;1270;22640;-81
2024/03/12 22:28:43;;;;;;;22.70;18.10;;;;;;;6.12;93.44;98532.45;226900;1270;22549;-80
2024/03/12 22:33:45;;;;;;;24.30;17.10;;;;;;;6.13;93.24;98534.83;226837;1269;22534;-81
2024/03/12 22:38:49;;;;;;;24.20;17.90;;;;;;;6.13;93.68;98535.17;226927;1267;25292;-81
2024/03/12 22:43:58;;;;;;;25.90;18.90;;;;;;;6.14;93.35;98539.05;226907;1273;22625;-81
2024/03/12 22:49:00;;;;;;;27.30;19.10;;;;;;;6.14;93.40;98539.61;226983;1250;24265;-81
2024/03/12 22:54:02;;;;;;;24.40;19.40;;;;;;;6.13;93.31;98541.77;226709;1270;25427;-81
2024/03/12 22:59:06;;;;;;;25.10;18.50;;;;;;;6.15;93.36;98544.23;226889;1268;22823;-81
2024/03/12 23:04:08;;;;;;;28.60;22.10;;;;;;;6.14;93.41;98541.91;226888;1272;22538;-81
2024/03/12 23:09:13;;;;;;;29.90;22.20;;;;;;;6.14;93.31;98543.31;226795;1268;24933;-81
2024/03/12 23:14:15;;;;;;;32.50;23.40;;;;;;;6.15;93.52;98544.20;226897;1268;22563;-80
2024/03/12 23:19:18;;;;;;;30.80;22.40;;;;;;;6.17;93.49;98548.23;226864;1265;24288;-81